createdAt,value
2022-07-29T00:02:09.600Z,52.00
2022-07-29T00:06:17.559Z,52.10
2022-07-29T00:10:00.388Z,54.00
2022-07-29T00:13:45.371Z,52.40
2022-07-29T00:17:39.509Z,52.60
2022-07-29T00:21:22.893Z,52.90
2022-07-29T00:25:16.989Z,53.20
2022-07-29T00:33:12.240Z,53.60
2022-07-29T00:36:54.752Z,53.60
2022-07-29T00:41:04.405Z,53.80
2022-07-29T00:44:55.230Z,54.10
2022-07-29T00:48:40.101Z,54.20
2022-07-29T00:56:19.947Z,54.70
2022-07-29T01:00:32.570Z,54.80
2022-07-29T01:04:15.198Z,57.10
2022-07-29T01:08:00.144Z,55.10
2022-07-29T01:11:47.764Z,55.40
2022-07-29T01:15:49.418Z,55.50
2022-07-29T01:19:55.348Z,56.90
2022-07-29T01:23:59.096Z,58.40
2022-07-29T01:28:09.175Z,56.60
2022-07-29T01:32:28.151Z,58.10
2022-07-29T01:36:38.254Z,58.40
2022-07-29T01:40:35.062Z,58.10
2022-07-29T01:44:25.525Z,56.50
2022-07-29T01:48:32.404Z,57.20
2022-07-29T01:52:47.680Z,58.80
2022-07-29T01:56:35.461Z,57.20
2022-07-29T02:00:19.836Z,57.30
2022-07-29T02:04:10.129Z,56.80
2022-07-29T02:07:53.988Z,58.10
2022-07-29T02:11:41.867Z,57.30
2022-07-29T02:15:33.463Z,57.50
2022-07-29T02:19:20.049Z,58.70
2022-07-29T02:23:05.727Z,57.70
2022-07-29T02:26:56.701Z,58.10
2022-07-29T02:30:43.615Z,59.30
2022-07-29T02:34:31.896Z,58.80
2022-07-29T02:38:35.871Z,58.20
2022-07-29T02:42:19.765Z,58.50
2022-07-29T02:46:06.724Z,58.20
2022-07-29T02:50:42.134Z,58.40
2022-07-29T02:55:25.629Z,58.40
2022-07-29T02:59:16.751Z,60.20
2022-07-29T03:03:03.414Z,59.10
2022-07-29T03:06:49.944Z,58.80
2022-07-29T03:10:35.833Z,58.70
2022-07-29T03:14:25.152Z,59.20
2022-07-29T03:18:24.702Z,59.40
2022-07-29T03:22:09.593Z,60.80
2022-07-29T03:25:54.475Z,59.20
2022-07-29T03:29:37.891Z,59.20
2022-07-29T03:33:21.149Z,59.30
2022-07-29T03:37:04.369Z,59.40
2022-07-29T03:40:53.123Z,59.50
2022-07-29T03:44:44.367Z,59.80
2022-07-29T03:48:32.177Z,60.10
2022-07-29T03:52:22.081Z,59.90
2022-07-29T03:56:10.094Z,59.90
2022-07-29T04:00:06.574Z,60.00
2022-07-29T04:03:48.728Z,61.60
2022-07-29T04:07:33.258Z,60.30
2022-07-29T04:11:16.797Z,59.90
2022-07-29T04:15:00.910Z,60.10
2022-07-29T04:18:52.190Z,60.30
2022-07-29T04:22:37.206Z,60.70
2022-07-29T04:26:23.467Z,60.70
2022-07-29T04:30:11.263Z,60.70
2022-07-29T04:33:54.769Z,60.80
2022-07-29T04:37:37.480Z,60.90
2022-07-29T04:41:32.681Z,61.00
2022-07-29T04:45:30.352Z,61.40
2022-07-29T04:57:36.699Z,61.30
2022-07-29T05:05:50.244Z,63.00
2022-07-29T05:09:33.364Z,61.40
2022-07-29T05:17:16.301Z,61.70
2022-07-29T05:21:21.789Z,61.70
2022-07-29T05:25:09.096Z,63.20
2022-07-29T05:28:56.311Z,61.80
2022-07-29T05:33:09.455Z,62.30
2022-07-29T05:42:35.671Z,63.10
2022-07-29T05:50:54.720Z,63.10
2022-07-29T05:54:37.810Z,62.00
2022-07-29T05:58:20.180Z,62.00
2022-07-29T06:02:07.170Z,62.00
2022-07-29T06:06:04.625Z,62.40
2022-07-29T06:09:51.974Z,62.60
2022-07-29T06:13:36.958Z,62.30
2022-07-29T06:17:28.551Z,61.60
2022-07-29T06:31:03.301Z,60.50
2022-07-29T06:34:46.314Z,60.30
2022-07-29T06:38:34.257Z,60.00
2022-07-29T06:42:21.421Z,59.50
2022-07-29T06:46:07.690Z,58.50
2022-07-29T07:02:40.763Z,53.50
2022-07-29T07:10:25.092Z,53.10
2022-07-29T07:14:12.266Z,51.80
2022-07-29T07:17:58.545Z,51.50
2022-07-29T07:21:40.537Z,51.30
2022-07-29T07:25:22.736Z,50.70
2022-07-29T07:29:04.840Z,50.20
2022-07-29T07:32:46.917Z,49.40
2022-07-29T07:36:28.976Z,49.00
2022-07-29T07:40:18.820Z,48.60
2022-07-29T07:44:01.320Z,48.20
2022-07-29T07:47:43.490Z,47.70
2022-07-29T07:51:25.455Z,47.10
2022-07-29T07:55:07.850Z,46.70
2022-07-29T07:58:49.787Z,46.40
2022-07-29T08:02:32.774Z,45.70
2022-07-29T08:06:22.060Z,44.90
2022-07-29T08:10:08.950Z,44.20
2022-07-29T08:13:51.295Z,44.00
2022-07-29T08:17:35.486Z,43.40
2022-07-29T08:21:18.291Z,42.90
2022-07-29T08:25:00.614Z,42.50
2022-07-29T08:29:01.192Z,42.10
2022-07-29T08:32:53.733Z,39.80
2022-07-29T08:36:37.854Z,40.50
2022-07-29T08:40:31.833Z,39.40
2022-07-29T08:44:16.974Z,38.90
2022-07-29T08:48:14.107Z,39.80
2022-07-29T08:52:10.149Z,37.40
2022-07-29T08:55:56.700Z,37.10
2022-07-29T08:59:43.355Z,36.70
2022-07-29T09:03:28.422Z,35.10
2022-07-29T09:07:11.286Z,35.00
2022-07-29T09:10:57.417Z,34.30
2022-07-29T09:14:50.393Z,33.90
2022-07-29T09:18:42.604Z,33.40
2022-07-29T09:22:36.720Z,32.40
2022-07-29T09:26:31.086Z,31.70
2022-07-29T09:30:28.347Z,31.30
2022-07-29T09:34:16.263Z,31.00
2022-07-29T09:37:58.536Z,31.30
2022-07-29T09:41:55.609Z,31.20
2022-07-29T09:45:38.927Z,29.70
2022-07-29T09:49:24.243Z,30.50
2022-07-29T09:53:06.483Z,30.10
2022-07-29T09:56:55.496Z,29.50
2022-07-29T10:00:43.726Z,28.20
2022-07-29T10:04:42.634Z,26.90
2022-07-29T10:08:28.097Z,25.30
2022-07-29T10:12:15.629Z,27.10
2022-07-29T10:16:00.534Z,27.20
2022-07-29T10:19:46.139Z,26.80
2022-07-29T10:23:30.483Z,26.30
2022-07-29T10:27:29.287Z,25.50
2022-07-29T10:31:35.840Z,25.60
2022-07-29T10:35:53.358Z,24.50
2022-07-29T10:40:30.965Z,23.40
2022-07-29T10:44:24.800Z,23.90
2022-07-29T10:48:08.102Z,23.00
2022-07-29T10:52:00.018Z,23.70
2022-07-29T10:55:47.843Z,22.40
2022-07-29T10:59:36.392Z,23.10
2022-07-29T11:03:52.381Z,22.90
2022-07-29T11:07:42.650Z,20.60
2022-07-29T11:11:29.743Z,21.90
2022-07-29T11:15:18.422Z,21.40
2022-07-29T11:19:13.056Z,20.90
2022-07-29T11:22:55.521Z,19.70
2022-07-29T11:26:38.304Z,20.80
2022-07-29T11:30:21.865Z,20.20
2022-07-29T11:34:30.388Z,20.40
2022-07-29T11:38:29.161Z,19.30
2022-07-29T11:42:28.785Z,18.80
2022-07-29T11:46:15.721Z,18.60
2022-07-29T11:50:10.421Z,19.00
2022-07-29T11:53:52.821Z,18.30
2022-07-29T11:57:36.709Z,18.00
2022-07-29T12:01:19.552Z,18.80
2022-07-29T12:05:01.445Z,17.90
2022-07-29T12:08:52.892Z,17.60
2022-07-29T12:12:36.114Z,17.10
2022-07-29T12:16:25.654Z,16.80
2022-07-29T12:20:10.363Z,16.40
2022-07-29T12:24:04.787Z,16.50
2022-07-29T12:28:02.126Z,16.30
2022-07-29T12:31:46.164Z,15.30
2022-07-29T12:35:28.574Z,16.00
2022-07-29T12:39:13.911Z,15.90
2022-07-29T12:43:17.000Z,15.70
2022-07-29T12:47:05.559Z,14.90
2022-07-29T12:50:58.514Z,15.30
2022-07-29T12:54:48.406Z,15.50
2022-07-29T12:58:44.461Z,15.40
2022-07-29T13:02:27.689Z,14.40
2022-07-29T13:06:37.828Z,15.50
2022-07-29T13:10:24.589Z,15.60
2022-07-29T13:14:11.427Z,15.50
2022-07-29T13:17:53.624Z,15.30
2022-07-29T13:21:36.309Z,15.40
2022-07-29T13:25:27.029Z,15.60
2022-07-29T13:29:09.353Z,14.70
2022-07-29T13:32:52.504Z,15.40
2022-07-29T13:36:38.767Z,15.70
2022-07-29T13:40:36.710Z,15.80
2022-07-29T13:44:21.965Z,15.50
2022-07-29T13:48:07.745Z,15.90
2022-07-29T13:51:51.330Z,15.80
2022-07-29T13:55:33.619Z,16.70
2022-07-29T13:59:16.224Z,17.50
2022-07-29T14:02:58.784Z,18.40
2022-07-29T14:06:49.437Z,19.20
2022-07-29T14:10:33.430Z,20.00
2022-07-29T14:14:22.081Z,20.60
2022-07-29T14:18:25.138Z,21.30
2022-07-29T14:22:13.069Z,21.90
2022-07-29T14:25:55.641Z,22.00
2022-07-29T14:29:39.397Z,22.40
2022-07-29T14:33:24.165Z,22.60
2022-07-29T14:37:07.347Z,23.00
2022-07-29T14:40:50.902Z,22.70
2022-07-29T14:44:33.583Z,23.30
2022-07-29T14:48:15.976Z,23.50
2022-07-29T14:51:58.639Z,23.70
2022-07-29T14:55:42.015Z,23.80
2022-07-29T14:59:25.029Z,24.00
2022-07-29T15:03:11.202Z,24.20
2022-07-29T15:06:54.120Z,24.40
2022-07-29T15:10:37.036Z,24.40
2022-07-29T15:14:19.632Z,24.40
2022-07-29T15:18:02.083Z,24.40
2022-07-29T15:21:48.864Z,24.50
2022-07-29T15:25:31.335Z,24.50
2022-07-29T15:29:14.748Z,24.50
2022-07-29T15:32:59.210Z,24.60
2022-07-29T15:36:52.134Z,24.80
2022-07-29T15:40:35.003Z,25.00
2022-07-29T15:44:17.030Z,25.30
2022-07-29T15:47:59.251Z,25.50
2022-07-29T15:51:44.026Z,25.70
2022-07-29T15:55:26.035Z,25.80
2022-07-29T15:59:08.001Z,26.10
2022-07-29T16:02:50.451Z,26.70
2022-07-29T16:06:32.553Z,27.20
2022-07-29T16:10:14.637Z,27.60
2022-07-29T16:13:56.791Z,28.00
2022-07-29T16:17:40.154Z,28.40
2022-07-29T16:21:25.632Z,28.50
2022-07-29T16:25:10.081Z,29.70
2022-07-29T16:28:52.927Z,30.10
2022-07-29T16:32:37.308Z,30.40
2022-07-29T16:36:19.814Z,30.70
2022-07-29T16:56:39.165Z,31.40
2022-07-29T17:00:25.554Z,31.40
2022-07-29T17:04:07.657Z,31.40
2022-07-29T17:07:51.112Z,31.40
2022-07-29T17:11:51.784Z,31.50
2022-07-29T17:15:36.368Z,31.50
2022-07-29T17:19:19.104Z,31.50
2022-07-29T17:23:03.890Z,31.80
2022-07-29T17:26:47.050Z,31.50
2022-07-29T17:30:32.672Z,32.00
2022-07-29T17:34:19.935Z,32.40
2022-07-29T17:38:02.501Z,32.60
2022-07-29T17:41:47.368Z,32.90
2022-07-29T17:45:50.287Z,33.20
2022-07-29T17:49:53.413Z,33.40
2022-07-29T17:53:37.396Z,34.00
2022-07-29T17:57:19.689Z,33.90
2022-07-29T18:01:02.296Z,34.00
2022-07-29T18:04:49.655Z,34.10
2022-07-29T18:08:35.494Z,34.40
2022-07-29T18:12:17.636Z,34.40
2022-07-29T18:16:00.685Z,34.60
2022-07-29T18:19:44.956Z,34.80
2022-07-29T18:23:29.840Z,35.00
2022-07-29T18:27:12.345Z,35.00
2022-07-29T18:30:58.908Z,35.00
2022-07-29T18:34:42.146Z,35.10
2022-07-29T18:38:24.238Z,35.40
2022-07-29T18:42:06.597Z,35.50
2022-07-29T18:45:50.042Z,35.60
2022-07-29T18:49:34.510Z,35.50
2022-07-29T18:53:16.651Z,35.50
2022-07-29T18:57:01.229Z,35.60
2022-07-29T19:01:02.777Z,35.80
2022-07-29T19:04:44.852Z,35.90
2022-07-29T19:08:26.976Z,35.90
2022-07-29T19:12:09.226Z,36.00
2022-07-29T19:15:51.286Z,36.00
2022-07-29T19:19:33.745Z,36.30
2022-07-29T19:23:16.267Z,36.20
2022-07-29T19:27:01.240Z,36.20
2022-07-29T19:30:43.532Z,36.30
2022-07-29T19:34:25.754Z,36.40
2022-07-29T19:38:08.054Z,36.60
2022-07-29T19:42:03.259Z,36.90
2022-07-29T19:45:48.359Z,37.20
2022-07-29T19:49:33.546Z,37.60
2022-07-29T19:53:40.652Z,38.00
2022-07-29T19:57:24.156Z,38.30
2022-07-29T20:01:11.341Z,38.40
2022-07-29T20:04:54.689Z,39.10
2022-07-29T20:08:56.745Z,39.20
2022-07-29T20:12:55.553Z,39.60
2022-07-29T20:20:39.519Z,40.20
2022-07-29T20:24:22.378Z,40.40
2022-07-29T20:28:05.770Z,40.90
2022-07-29T20:31:52.944Z,41.10
2022-07-29T20:35:41.568Z,41.20
2022-07-29T20:39:24.215Z,41.50
2022-07-29T20:43:09.663Z,41.70
2022-07-29T20:46:51.921Z,42.20
2022-07-29T20:50:34.102Z,42.50
2022-07-29T20:54:16.636Z,42.70
2022-07-29T20:58:00.210Z,43.00
2022-07-29T21:01:42.475Z,43.40
2022-07-29T21:05:24.995Z,43.80
2022-07-29T21:09:07.139Z,44.40
2022-07-29T21:12:49.246Z,44.70
2022-07-29T21:16:34.170Z,45.20
2022-07-29T21:20:18.823Z,45.50
2022-07-29T21:24:03.395Z,45.60
2022-07-29T21:28:04.192Z,45.80
2022-07-29T21:31:54.800Z,46.00
2022-07-29T21:35:59.057Z,46.30
2022-07-29T21:39:39.650Z,46.60
2022-07-29T21:43:25.284Z,46.50
2022-07-29T21:47:10.159Z,47.00
2022-07-29T21:50:58.206Z,47.10
2022-07-29T21:54:42.076Z,47.50
2022-07-29T21:58:25.993Z,47.00
2022-07-29T22:02:11.328Z,47.10
2022-07-29T22:05:53.729Z,47.30
2022-07-29T22:09:36.117Z,47.50
2022-07-29T22:13:20.712Z,47.70
2022-07-29T22:17:04.499Z,47.80
2022-07-29T22:20:47.231Z,48.00
2022-07-29T22:24:29.561Z,48.00
2022-07-29T22:28:11.602Z,48.20
2022-07-29T22:31:53.882Z,48.20
2022-07-29T22:35:35.960Z,48.50
2022-07-29T22:39:18.255Z,48.80
2022-07-29T22:43:02.655Z,49.00
2022-07-29T22:46:45.089Z,49.30
2022-07-29T22:50:28.521Z,49.50
2022-07-29T22:54:11.186Z,49.80
2022-07-29T22:57:54.089Z,49.90
2022-07-29T23:01:37.869Z,50.10
2022-07-29T23:05:20.507Z,50.40
2022-07-29T23:09:04.705Z,50.60
2022-07-29T23:12:47.226Z,50.90
2022-07-29T23:16:29.587Z,50.90
2022-07-29T23:20:11.974Z,51.00
2022-07-29T23:23:57.331Z,51.10
2022-07-29T23:27:39.507Z,51.00
2022-07-29T23:31:26.184Z,51.00
2022-07-29T23:35:09.127Z,51.00
2022-07-29T23:38:51.225Z,51.00
2022-07-29T23:42:33.648Z,50.80
2022-07-29T23:46:16.101Z,50.70
2022-07-29T23:49:58.616Z,50.60
2022-07-29T23:53:54.092Z,50.50
2022-07-29T23:57:36.307Z,50.70
